Time;durP1;ratioP1;P1;durP2;ratioP2;P2;SDS_P1;SDS_P2;PMS_P1;PMS_P2;Temp;Humidity;BMP_temperature;BMP_pressure;BME280_temperature;BME280_humidity;BME280_pressure;Samples;Min_cycle;Max_cycle;Signal;HPM_P1;HPM_P2
2023/03/25 00:03:52;;;;;;;18.40;8.50;;;;;;;7.99;100.00;99370.41;215156;1289;139331;-87
2023/03/25 00:08:53;;;;;;;15.70;8.30;;;;;;;7.97;100.00;99363.35;214672;1288;140732;-88
2023/03/25 00:13:53;;;;;;;16.70;7.90;;;;;;;7.94;100.00;99350.02;215272;1291;97973;-88
2023/03/25 00:18:54;;;;;;;17.20;7.70;;;;;;;7.91;100.00;99336.24;214640;1289;139610;-88
2023/03/25 00:23:55;;;;;;;15.30;7.30;;;;;;;7.88;100.00;99333.42;215077;1291;139374;-88
2023/03/25 00:28:55;;;;;;;14.90;7.50;;;;;;;7.88;100.00;99331.30;214728;1288;140153;-87
2023/03/25 00:33:56;;;;;;;14.60;6.90;;;;;;;7.86;100.00;99324.17;215223;1293;140017;-87
2023/03/25 00:38:57;;;;;;;14.70;7.70;;;;;;;7.84;100.00;99323.07;214649;1289;139694;-88
2023/03/25 00:43:59;;;;;;;19.40;9.30;;;;;;;7.81;100.00;99318.13;215272;1294;97922;-87
2023/03/25 00:49:00;;;;;;;15.70;6.60;;;;;;;7.80;100.00;99310.38;214628;1288;139161;-87
2023/03/25 00:54:01;;;;;;;14.30;6.70;;;;;;;7.79;100.00;99307.87;215119;1288;138883;-88
2023/03/25 00:59:01;;;;;;;15.40;6.70;;;;;;;7.77;100.00;99310.05;214903;1291;140032;-87
2023/03/25 01:04:02;;;;;;;16.40;7.10;;;;;;;7.77;100.00;99309.42;215192;1288;140189;-87
2023/03/25 01:09:05;;;;;;;14.70;7.40;;;;;;;7.75;100.00;99300.11;214810;1291;139285;-87
2023/03/25 01:14:14;;;;;;;14.20;6.20;;;;;;;7.74;100.00;99290.63;215119;1291;138902;-84
2023/03/25 01:19:15;;;;;;;14.80;7.30;;;;;;;7.73;100.00;99292.59;214731;1289;139051;-88
2023/03/25 01:24:15;;;;;;;13.20;6.60;;;;;;;7.71;100.00;99280.92;215282;1289;139938;-87
2023/03/25 01:29:18;;;;;;;18.30;7.10;;;;;;;7.70;100.00;99277.86;214554;1288;139522;-88
2023/03/25 01:34:19;;;;;;;13.70;6.80;;;;;;;7.69;100.00;99289.84;215239;1288;139217;-88
2023/03/25 01:39:20;;;;;;;16.20;7.20;;;;;;;7.66;100.00;99287.16;214635;1288;139624;-87
2023/03/25 01:44:20;;;;;;;17.50;6.80;;;;;;;7.64;100.00;99293.10;215236;1293;138905;-87
2023/03/25 01:49:30;;;;;;;12.50;6.20;;;;;;;7.64;100.00;99275.73;214832;1288;139028;-87
2023/03/25 01:54:30;;;;;;;14.00;6.20;;;;;;;7.63;100.00;99271.66;215243;1289;139601;-88
2023/03/25 01:59:31;;;;;;;12.60;6.20;;;;;;;7.63;100.00;99271.88;214644;1293;139083;-88
2023/03/25 02:05:03;;;;;;;15.20;6.60;;;;;;;7.61;100.00;99269.94;215180;1290;139908;-87
2023/03/25 02:10:07;;;;;;;14.30;7.10;;;;;;;7.60;100.00;99263.98;214384;1289;138824;-87
2023/03/25 02:15:09;;;;;;;17.00;6.80;;;;;;;7.58;100.00;99264.67;214975;1289;139378;-87
2023/03/25 02:20:47;;;;;;;15.10;7.50;;;;;;;7.54;100.00;99268.71;214454;1289;138916;-88
2023/03/25 02:26:10;;;;;;;15.20;6.40;;;;;;;7.49;100.00;99283.79;215100;1289;105912;-87
2023/03/25 02:31:17;;;;;;;13.10;6.20;;;;;;;7.44;100.00;99261.31;214628;1288;139475;-88
2023/03/25 02:36:47;;;;;;;14.20;6.80;;;;;;;7.39;100.00;99245.73;215178;1292;138542;-88
2023/03/25 02:42:03;;;;;;;15.30;7.60;;;;;;;7.32;100.00;99238.13;214685;1288;138829;-87
2023/03/25 02:47:10;;;;;;;15.90;7.60;;;;;;;7.24;100.00;99245.82;215245;1289;138738;-87
2023/03/25 02:52:19;;;;;;;15.90;7.10;;;;;;;7.18;100.00;99242.66;214634;1290;139630;-87
2023/03/25 02:57:21;;;;;;;14.30;7.50;;;;;;;7.10;100.00;99261.21;215183;1289;138797;-87
2023/03/25 03:02:25;;;;;;;14.60;7.20;;;;;;;7.02;100.00;99265.16;214754;1292;138826;-87
2023/03/25 03:07:33;;;;;;;16.80;7.90;;;;;;;6.93;100.00;99257.51;215223;1289;110717;-87
2023/03/25 03:12:55;;;;;;;16.90;7.50;;;;;;;6.85;100.00;99248.08;214688;1294;139426;-87
2023/03/25 03:18:08;;;;;;;16.90;8.90;;;;;;;6.77;100.00;99239.97;215161;1289;139254;-87
2023/03/25 03:23:19;;;;;;;15.90;8.80;;;;;;;6.67;100.00;99235.85;214716;1289;139441;-87
2023/03/25 03:28:37;;;;;;;20.80;8.70;;;;;;;6.60;100.00;99231.64;215245;1289;138886;-87
2023/03/25 03:33:49;;;;;;;19.20;9.20;;;;;;;6.51;100.00;99234.39;214670;1290;139494;-87
2023/03/25 03:39:00;;;;;;;18.20;9.20;;;;;;;6.45;100.00;99247.06;214664;1292;138810;-86
2023/03/25 03:44:06;;;;;;;18.60;8.70;;;;;;;6.40;100.00;99250.30;215396;1289;111244;-87
2023/03/25 03:49:13;;;;;;;15.50;8.00;;;;;;;6.34;100.00;99255.48;214937;1293;139369;-87
2023/03/25 03:54:19;;;;;;;15.90;8.80;;;;;;;6.28;100.00;99267.67;215268;1291;138721;-87
2023/03/25 03:59:26;;;;;;;;;;;;;;;6.22;100.00;99272.85;214553;1289;139017;-87
2023/03/25 04:04:27;;;;;;;16.40;7.60;;;;;;;6.15;100.00;99275.43;215131;1289;124970;-87
2023/03/25 04:09:56;;;;;;;17.80;8.90;;;;;;;6.10;100.00;99281.47;214341;1292;360159;-86
2023/03/25 04:15:00;;;;;;;16.50;8.50;;;;;;;6.04;100.00;99284.67;214739;1293;138983;-86
2023/03/25 04:20:07;;;;;;;15.30;8.20;;;;;;;5.98;100.00;99287.81;214643;1291;139733;-86
2023/03/25 04:25:08;;;;;;;16.70;8.20;;;;;;;5.92;100.00;99285.34;215145;1294;107024;-86
2023/03/25 04:30:10;;;;;;;16.10;8.70;;;;;;;5.86;100.00;99285.34;214537;1291;139267;-86
2023/03/25 04:35:17;;;;;;;16.30;8.30;;;;;;;5.81;100.00;99271.48;214827;1289;138927;-86
2023/03/25 04:40:17;;;;;;;16.00;8.00;;;;;;;5.78;100.00;99275.85;214520;1289;139408;-87
2023/03/25 04:45:20;;;;;;;18.70;8.10;;;;;;;5.76;100.00;99281.14;215117;1288;138872;-87
2023/03/25 04:50:24;;;;;;;19.40;8.40;;;;;;;5.73;100.00;99282.59;214487;1292;139102;-86
2023/03/25 04:55:24;;;;;;;15.10;7.60;;;;;;;5.72;100.00;99284.38;215293;1290;105021;-87
2023/03/25 05:00:26;;;;;;;14.40;7.60;;;;;;;5.71;100.00;99271.02;214434;1289;138871;-87
2023/03/25 05:05:26;;;;;;;15.20;7.10;;;;;;;5.71;100.00;99268.44;215003;1292;139058;-87
2023/03/25 05:10:29;;;;;;;17.10;7.20;;;;;;;5.72;100.00;99270.95;214544;1289;138904;-87
2023/03/25 05:15:34;;;;;;;13.70;7.40;;;;;;;5.74;100.00;99268.64;215021;1289;139640;-86
2023/03/25 05:20:38;;;;;;;16.30;7.60;;;;;;;5.76;100.00;99276.37;214612;1292;139267;-86
2023/03/25 05:25:40;;;;;;;14.30;7.60;;;;;;;5.78;100.00;99282.72;215000;1289;111701;-86
2023/03/25 05:30:44;;;;;;;14.20;7.40;;;;;;;5.79;100.00;99283.61;214450;1289;139029;-86
2023/03/25 05:35:45;;;;;;;14.80;7.00;;;;;;;5.82;100.00;99282.96;215577;1291;138774;-87
2023/03/25 05:40:46;;;;;;;13.10;7.50;;;;;;;5.87;100.00;99281.61;214536;1289;139439;-87
2023/03/25 05:45:48;;;;;;;17.40;8.40;;;;;;;5.97;100.00;99277.52;214825;1289;138637;-88
2023/03/25 05:50:48;;;;;;;14.40;7.40;;;;;;;6.13;100.00;99280.09;214453;1294;139365;-87
2023/03/25 05:55:50;;;;;;;16.20;8.00;;;;;;;6.28;100.00;99277.13;214943;1294;98139;-86
2023/03/25 06:00:51;;;;;;;16.90;8.00;;;;;;;6.41;100.00;99273.80;214554;1293;139198;-87
2023/03/25 06:05:52;;;;;;;15.60;7.70;;;;;;;6.53;100.00;99270.58;215106;1289;138790;-87
2023/03/25 06:10:57;;;;;;;19.50;8.30;;;;;;;6.69;100.00;99270.23;214656;1289;139172;-90
2023/03/25 06:15:58;;;;;;;22.20;10.00;;;;;;;6.86;100.00;99269.56;215232;1292;139673;-87
2023/03/25 06:20:59;;;;;;;16.00;7.80;;;;;;;7.02;100.00;99269.84;215023;1289;139249;-86
2023/03/25 06:26:00;;;;;;;16.70;8.00;;;;;;;7.20;100.00;99270.58;215261;1289;97966;-87
2023/03/25 06:31:05;;;;;;;19.60;8.70;;;;;;;7.36;100.00;99276.06;214638;1290;138868;-87
2023/03/25 06:36:06;;;;;;;17.80;9.00;;;;;;;7.51;100.00;99278.33;215081;1294;138790;-89
2023/03/25 06:41:07;;;;;;;17.40;8.20;;;;;;;7.65;100.00;99280.11;214780;1289;139875;-88
2023/03/25 06:46:07;;;;;;;16.70;8.10;;;;;;;7.77;100.00;99279.30;215201;1289;139021;-86
2023/03/25 06:51:08;;;;;;;16.10;8.00;;;;;;;7.89;100.00;99280.98;214641;1289;139502;-88
2023/03/25 06:56:09;;;;;;;13.20;7.00;;;;;;;8.01;100.00;99284.30;215423;1289;140300;-89
2023/03/25 07:01:09;;;;;;;15.50;7.00;;;;;;;8.14;100.00;99289.73;214718;1289;139175;-88
2023/03/25 07:06:16;;;;;;;13.40;6.90;;;;;;;8.25;100.00;99284.55;215013;1289;139178;-88
2023/03/25 07:11:22;;;;;;;16.30;6.10;;;;;;;8.39;100.00;99273.85;214561;1292;139017;-89
2023/03/25 07:16:23;;;;;;;12.90;5.60;;;;;;;8.55;100.00;99264.06;215119;1293;138974;-90
2023/03/25 07:21:24;;;;;;;13.50;6.00;;;;;;;8.70;100.00;99266.19;214606;1292;140495;-89
2023/03/25 07:26:24;;;;;;;14.40;5.00;;;;;;;8.83;100.00;99266.34;215118;1292;139333;-87
2023/03/25 07:31:25;;;;;;;12.20;5.20;;;;;;;8.96;100.00;99265.23;214556;1292;138383;-89
2023/03/25 07:36:25;;;;;;;13.80;6.20;;;;;;;9.11;100.00;99264.27;214949;1289;139831;-88
2023/03/25 07:41:26;;;;;;;11.60;5.60;;;;;;;9.27;100.00;99265.65;214593;1291;140365;-85
2023/03/25 07:46:27;;;;;;;12.30;4.80;;;;;;;9.45;100.00;99265.67;215086;1292;139062;-88
2023/03/25 07:51:29;;;;;;;15.00;6.40;;;;;;;9.60;100.00;99261.92;214778;1289;138803;-89
2023/03/25 07:56:29;;;;;;;12.70;5.90;;;;;;;9.76;100.00;99257.00;214997;1292;138801;-87
2023/03/25 08:01:30;;;;;;;15.90;5.70;;;;;;;9.92;100.00;99249.70;214549;1293;138895;-87
2023/03/25 08:06:30;;;;;;;12.00;5.50;;;;;;;10.08;100.00;99255.52;214902;1289;139061;-88
2023/03/25 08:11:31;;;;;;;12.40;4.90;;;;;;;10.22;100.00;99258.90;214672;1292;139404;-86
2023/03/25 08:16:31;;;;;;;11.80;5.20;;;;;;;10.34;100.00;99258.05;214982;1289;139363;-86
2023/03/25 08:21:32;;;;;;;11.90;4.00;;;;;;;10.47;100.00;99261.16;214596;1288;139758;-86
2023/03/25 08:26:33;;;;;;;11.20;4.20;;;;;;;10.59;100.00;99255.80;215018;1293;140297;-88
2023/03/25 08:31:37;;;;;;;11.60;4.20;;;;;;;10.75;100.00;99262.91;214662;1292;139349;-84
2023/03/25 08:36:38;;;;;;;10.00;4.20;;;;;;;10.92;100.00;99264.56;215515;1290;138984;-85
2023/03/25 08:41:38;;;;;;;8.80;3.60;;;;;;;11.06;100.00;99265.94;214727;1292;140904;-84
2023/03/25 08:46:39;;;;;;;7.90;3.70;;;;;;;11.15;100.00;99272.13;214965;1292;138868;-84
2023/03/25 08:51:39;;;;;;;10.40;4.20;;;;;;;11.22;100.00;99273.41;214367;1289;139271;-85
2023/03/25 08:56:40;;;;;;;8.70;3.50;;;;;;;11.28;100.00;99271.77;214889;1293;139131;-85
2023/03/25 09:01:42;;;;;;;9.90;4.00;;;;;;;11.39;100.00;99263.94;214574;1289;138635;-86
2023/03/25 09:06:43;;;;;;;11.30;3.70;;;;;;;11.53;100.00;99262.52;214843;1292;138801;-85
2023/03/25 09:11:44;;;;;;;7.00;3.30;;;;;;;11.70;100.00;99259.84;214153;1292;139180;-84
2023/03/25 09:16:44;;;;;;;9.50;3.20;;;;;;;11.86;100.00;99259.39;214559;1293;139011;-86
2023/03/25 09:21:45;;;;;;;7.20;2.60;;;;;;;11.98;99.59;99264.20;214072;1289;139876;-84
2023/03/25 09:26:45;;;;;;;8.50;2.60;;;;;;;12.10;98.36;99267.04;214850;1293;139028;-85
2023/03/25 09:31:45;;;;;;;6.10;2.70;;;;;;;12.16;97.24;99270.34;214287;1289;139054;-86
2023/03/25 09:36:46;;;;;;;7.40;1.80;;;;;;;12.12;96.48;99276.78;214727;1292;138613;-84
2023/03/25 09:42:18;;;;;;;4.90;2.30;;;;;;;12.11;96.91;99272.52;214313;1292;139829;-85
2023/03/25 09:47:22;;;;;;;6.10;2.20;;;;;;;12.27;97.37;99267.95;214859;1292;138805;-85
2023/03/25 09:52:27;;;;;;;8.40;2.50;;;;;;;12.59;98.59;99269.23;214209;1292;138905;-85
2023/03/25 09:57:30;;;;;;;9.30;2.70;;;;;;;13.02;97.00;99264.60;214721;1289;138762;-85
2023/03/25 10:02:36;;;;;;;4.90;2.10;;;;;;;13.30;95.43;99267.33;214679;1289;138851;-85
2023/03/25 10:07:52;;;;;;;8.20;2.60;;;;;;;13.35;92.26;99268.89;214874;1293;97967;-86
2023/03/25 10:13:08;;;;;;;10.20;2.10;;;;;;;13.44;91.57;99261.70;214419;1289;138909;-85
2023/03/25 10:18:32;;;;;;;8.10;1.80;;;;;;;13.61;89.47;99261.20;214841;1289;139420;-85
2023/03/25 10:24:07;;;;;;;6.50;2.10;;;;;;;13.90;87.19;99248.68;214353;1292;139200;-85
2023/03/25 10:29:34;;;;;;;4.00;1.70;;;;;;;14.20;86.79;99246.84;214387;1289;140050;-85
2023/03/25 10:34:41;;;;;;;6.50;2.00;;;;;;;14.57;84.98;99238.71;214470;1292;138704;-85
2023/03/25 10:39:44;;;;;;;6.00;2.70;;;;;;;14.96;82.47;99229.67;214383;1294;138855;-85
2023/03/25 10:44:46;;;;;;;6.10;2.00;;;;;;;14.92;78.86;99227.79;214917;1290;138944;-86
2023/03/25 10:49:48;;;;;;;7.50;2.20;;;;;;;14.76;78.75;99216.50;214310;1289;139972;-89
2023/03/25 10:54:53;;;;;;;4.80;1.60;;;;;;;14.62;78.35;99218.12;214723;1292;138577;-86
2023/03/25 11:00:17;;;;;;;3.90;1.40;;;;;;;14.50;77.08;99219.76;213941;1289;208974;-86
2023/03/25 11:05:21;;;;;;;4.40;1.20;;;;;;;13.97;77.58;99232.86;214820;1289;138799;-87
2023/03/25 11:10:33;;;;;;;5.20;2.20;;;;;;;13.41;80.32;99246.02;214240;1291;139352;-86
2023/03/25 11:15:36;;;;;;;5.30;1.80;;;;;;;12.88;82.48;99256.38;214685;1289;139146;-85
2023/03/25 11:20:40;;;;;;;5.10;1.50;;;;;;;12.47;84.93;99254.84;214337;1292;139436;-87
2023/03/25 11:25:42;;;;;;;5.90;2.40;;;;;;;12.12;87.64;99268.34;214996;1293;98133;-85
2023/03/25 11:31:31;;;;;;;2.90;0.90;;;;;;;11.90;88.71;99268.64;214219;1289;139189;-89
2023/03/25 11:36:36;;;;;;;5.60;1.00;;;;;;;11.54;89.10;99267.08;214625;1289;139001;-85
2023/03/25 11:41:37;;;;;;;4.50;1.80;;;;;;;11.31;90.26;99252.86;214788;1289;138700;-85
2023/03/25 11:46:42;;;;;;;4.10;1.10;;;;;;;11.19;91.71;99246.68;215475;1289;139288;-85
2023/03/25 11:51:42;;;;;;;2.80;1.20;;;;;;;11.09;92.56;99227.99;215037;1292;139015;-85
2023/03/25 11:56:47;;;;;;;3.00;1.20;;;;;;;11.14;94.27;99230.05;215868;1289;139427;-85
2023/03/25 12:01:49;;;;;;;2.80;0.90;;;;;;;11.47;94.95;99220.89;215854;1291;139651;-84
2023/03/25 12:07:05;;;;;;;6.00;1.40;;;;;;;11.83;92.62;99215.88;215227;1288;138863;-86
2023/03/25 12:12:15;;;;;;;3.10;1.10;;;;;;;12.19;90.63;99210.31;214579;1289;139086;-86
2023/03/25 12:17:31;;;;;;;2.40;1.00;;;;;;;12.50;88.26;99203.55;215014;1291;138706;-86
2023/03/25 12:23:00;;;;;;;3.80;1.70;;;;;;;12.78;87.60;99195.89;214343;1291;140702;-89
2023/03/25 12:28:37;;;;;;;4.50;1.30;;;;;;;13.00;83.79;99197.09;214821;1288;139115;-85
2023/03/25 12:34:22;;;;;;;6.20;1.40;;;;;;;13.26;82.96;99193.98;214260;1291;139498;-84
2023/03/25 12:39:42;;;;;;;3.50;1.30;;;;;;;13.47;82.09;99196.96;214474;1288;139422;-86
2023/03/25 12:44:57;;;;;;;4.20;1.50;;;;;;;13.56;80.33;99191.09;214576;1288;139421;-87
2023/03/25 12:50:13;;;;;;;3.90;1.30;;;;;;;13.49;79.27;99189.44;214932;1290;138965;-85
2023/03/25 12:55:28;;;;;;;3.70;1.20;;;;;;;13.44;79.23;99183.77;215654;1288;97900;-86
2023/03/25 13:00:55;;;;;;;2.90;1.30;;;;;;;13.33;78.75;99172.92;215208;1290;138794;-86
2023/03/25 13:06:03;;;;;;;7.10;1.50;;;;;;;13.38;79.83;99167.37;215128;1289;138495;-85
2023/03/25 13:11:27;;;;;;;4.80;1.40;;;;;;;13.48;79.47;99163.70;214527;1288;139170;-85
2023/03/25 13:16:30;;;;;;;5.90;1.80;;;;;;;13.58;79.45;99158.12;215685;1289;138877;-85
2023/03/25 13:21:36;;;;;;;5.70;1.80;;;;;;;13.68;79.28;99159.46;214558;1291;139817;-86
2023/03/25 13:26:41;;;;;;;3.20;1.50;;;;;;;13.51;78.29;99210.13;215060;1290;138771;-88
2023/03/25 13:31:45;;;;;;;6.10;1.40;;;;;;;12.65;83.66;99225.75;214566;1289;138836;-86
2023/03/25 13:37:09;;;;;;;2.60;0.90;;;;;;;11.88;86.21;99216.36;214959;1291;139060;-84
2023/03/25 13:42:19;;;;;;;2.70;0.90;;;;;;;11.48;88.23;99203.55;214374;1288;138807;-83
2023/03/25 13:47:38;;;;;;;0.70;0.40;;;;;;;11.41;91.02;99195.45;215000;1291;138750;-84
2023/03/25 13:52:43;;;;;;;3.60;0.80;;;;;;;11.46;92.71;99187.83;214510;1293;138835;-83
2023/03/25 13:58:02;;;;;;;2.40;0.40;;;;;;;11.53;93.69;99187.90;215110;1289;139334;-86
2023/03/25 14:03:38;;;;;;;1.80;0.90;;;;;;;11.51;92.92;99177.29;214584;1288;138993;-85
2023/03/25 14:09:02;;;;;;;4.20;0.80;;;;;;;11.44;93.27;99186.59;215245;1288;139330;-86
2023/03/25 14:14:10;;;;;;;2.70;1.20;;;;;;;11.32;93.51;99183.99;214830;1293;138524;-83
2023/03/25 14:19:15;;;;;;;4.10;1.50;;;;;;;11.21;93.78;99178.77;214513;1290;139426;-83
2023/03/25 14:24:36;;;;;;;2.40;1.00;;;;;;;11.13;94.59;99180.27;215216;1288;139126;-84
2023/03/25 14:29:40;;;;;;;3.10;1.10;;;;;;;10.99;94.04;99172.17;214751;1291;138966;-83
2023/03/25 14:34:48;;;;;;;3.80;1.30;;;;;;;10.88;94.98;99177.79;216483;1288;140671;-85
2023/03/25 14:39:49;;;;;;;4.90;1.40;;;;;;;10.85;95.77;99178.36;214420;1292;140016;-85
2023/03/25 14:44:53;;;;;;;3.10;1.40;;;;;;;10.92;97.22;99174.52;215238;1289;139195;-83
2023/03/25 14:50:19;;;;;;;9.10;4.10;;;;;;;11.01;97.60;99177.02;214921;1289;141987;-84
2023/03/25 14:55:29;;;;;;;6.80;2.40;;;;;;;11.11;97.85;99169.52;215328;1292;106705;-85
2023/03/25 15:00:33;;;;;;;7.60;2.30;;;;;;;11.20;97.24;99163.05;214634;1288;138556;-84
2023/03/25 15:05:34;;;;;;;2.90;1.30;;;;;;;11.26;96.06;99160.77;215102;1289;138708;-84
2023/03/25 15:10:37;;;;;;;5.00;1.70;;;;;;;11.31;95.68;99155.44;215078;1288;138764;-85
2023/03/25 15:15:44;;;;;;;4.10;1.20;;;;;;;11.36;94.77;99153.40;215553;1290;138638;-85
2023/03/25 15:20:44;;;;;;;3.50;1.70;;;;;;;11.39;93.63;99152.19;214895;1288;139462;-84
2023/03/25 15:25:47;;;;;;;4.30;2.10;;;;;;;11.42;92.78;99148.36;215395;1288;99874;-86
2023/03/25 15:31:19;;;;;;;4.30;1.80;;;;;;;11.43;91.93;99150.02;214728;1289;138498;-86
2023/03/25 15:36:29;;;;;;;3.60;1.70;;;;;;;11.41;90.76;99144.14;215153;1289;138677;-83
2023/03/25 15:42:05;;;;;;;5.80;2.40;;;;;;;11.41;90.89;99144.30;214694;1289;140344;-86
2023/03/25 15:47:24;;;;;;;4.50;2.00;;;;;;;11.41;90.53;99141.52;215252;1289;139208;-85
2023/03/25 15:52:49;;;;;;;6.30;2.30;;;;;;;11.39;90.35;99144.23;214606;1291;138786;-85
2023/03/25 15:57:58;;;;;;;3.80;1.60;;;;;;;11.38;89.87;99146.79;215356;1288;138782;-85
2023/03/25 16:03:24;;;;;;;7.50;2.40;;;;;;;11.34;89.78;99150.21;215097;1291;139497;-85
2023/03/25 16:08:35;;;;;;;4.30;1.50;;;;;;;11.32;89.16;99146.38;215452;1288;138623;-85
2023/03/25 16:13:35;;;;;;;2.70;1.40;;;;;;;11.30;89.03;99156.63;214394;1289;346342;-86
2023/03/25 16:18:42;;;;;;;2.80;1.30;;;;;;;11.29;88.64;99161.52;215808;1291;138754;-86
2023/03/25 16:23:42;;;;;;;;;;;;;;;11.24;88.23;99162.60;215459;1289;139088;-85
2023/03/25 16:28:43;;;;;;;4.30;1.10;;;;;;;11.18;87.90;99162.12;215431;1289;125573;-82
2023/03/25 16:33:43;;;;;;;5.10;2.30;;;;;;;11.14;87.89;99159.41;214966;1289;138982;-84
2023/03/25 16:38:44;;;;;;;7.80;3.30;;;;;;;11.09;87.69;99161.91;214615;1292;138896;-83
2023/03/25 16:43:44;;;;;;;3.50;1.70;;;;;;;11.03;87.30;99172.91;214987;1289;98058;-85
2023/03/25 16:48:52;;;;;;;6.80;2.20;;;;;;;10.97;87.44;99173.84;214652;1288;138937;-84
2023/03/25 16:53:55;;;;;;;7.10;2.30;;;;;;;10.92;87.39;99179.56;215161;1291;138528;-86
2023/03/25 16:59:06;;;;;;;4.30;1.70;;;;;;;10.84;87.38;99183.88;214643;1289;138979;-86
2023/03/25 17:04:16;;;;;;;6.30;2.30;;;;;;;10.73;87.46;99185.09;215401;1289;139801;-86
2023/03/25 17:09:19;;;;;;;2.90;1.10;;;;;;;10.62;87.19;99188.65;214735;1289;139199;-86
2023/03/25 17:14:26;;;;;;;4.10;1.50;;;;;;;10.52;86.83;99195.35;215262;1292;139169;-85
2023/03/25 17:19:26;;;;;;;3.90;1.70;;;;;;;10.41;86.93;99199.91;214993;1290;139702;-87
2023/03/25 17:24:27;;;;;;;4.50;1.80;;;;;;;10.33;86.92;99204.46;215262;1291;138753;-86
2023/03/25 17:29:28;;;;;;;4.70;1.80;;;;;;;10.25;87.25;99204.52;214564;1292;138720;-86
2023/03/25 17:34:31;;;;;;;4.80;1.70;;;;;;;10.18;87.80;99209.75;214978;1293;138855;-86
2023/03/25 17:39:33;;;;;;;5.10;1.60;;;;;;;10.12;87.70;99217.17;214650;1288;139185;-85
2023/03/25 17:44:44;;;;;;;3.40;1.60;;;;;;;10.06;88.01;99224.36;215102;1293;139230;-87
2023/03/25 17:49:45;;;;;;;6.00;2.60;;;;;;;10.02;88.36;99229.38;214609;1291;138719;-87
2023/03/25 17:54:45;;;;;;;5.30;1.90;;;;;;;9.96;88.51;99232.87;215176;1289;138596;-86
2023/03/25 17:59:46;;;;;;;7.60;2.00;;;;;;;9.91;88.95;99235.02;214773;1289;140099;-87
2023/03/25 18:04:46;;;;;;;8.00;2.70;;;;;;;9.87;89.44;99241.95;215251;1289;138894;-86
2023/03/25 18:09:47;;;;;;;6.50;2.70;;;;;;;9.83;89.91;99250.14;214988;1289;139066;-86
2023/03/25 18:14:48;;;;;;;11.10;3.70;;;;;;;9.80;91.16;99240.57;215450;1289;139402;-86
2023/03/25 18:19:49;;;;;;;36.70;16.80;;;;;;;9.74;91.65;99233.46;214842;1293;138785;-86
2023/03/25 18:24:49;;;;;;;21.50;10.30;;;;;;;9.70;92.39;99231.67;215334;1289;139278;-87
2023/03/25 18:29:50;;;;;;;10.60;4.80;;;;;;;9.66;92.33;99223.54;214715;1289;138873;-87
2023/03/25 18:34:51;;;;;;;7.10;2.50;;;;;;;9.63;92.29;99214.74;215410;1289;139434;-86
2023/03/25 18:39:57;;;;;;;5.80;2.20;;;;;;;9.59;92.10;99224.19;214883;1289;139166;-86
2023/03/25 18:44:58;;;;;;;8.30;3.50;;;;;;;9.53;93.55;99269.48;215209;1289;138497;-86
2023/03/25 18:49:58;;;;;;;12.00;4.40;;;;;;;9.45;95.30;99272.89;215079;1289;138311;-87
2023/03/25 18:54:59;;;;;;;9.50;2.90;;;;;;;9.37;96.79;99277.85;215362;1288;138564;-87
2023/03/25 19:00:00;;;;;;;7.20;3.10;;;;;;;9.31;97.77;99275.13;214838;1289;138720;-87
2023/03/25 19:05:00;;;;;;;7.80;3.60;;;;;;;9.23;98.79;99242.20;215166;1288;138423;-86
2023/03/25 19:10:01;;;;;;;11.60;4.90;;;;;;;9.15;99.16;99250.38;214914;1290;139772;-89
2023/03/25 19:15:01;;;;;;;14.80;6.10;;;;;;;8.96;99.84;99250.25;215330;1288;138773;-85
2023/03/25 19:20:03;;;;;;;10.30;4.60;;;;;;;8.82;99.87;99246.90;215083;1291;139788;-85
2023/03/25 19:25:04;;;;;;;9.80;4.30;;;;;;;8.71;99.94;99247.38;215248;1294;139352;-85
2023/03/25 19:30:07;;;;;;;12.20;4.60;;;;;;;8.60;99.96;99247.63;214825;1289;232966;-86
2023/03/25 19:35:11;;;;;;;9.30;3.30;;;;;;;8.51;100.00;99249.64;215934;1289;139349;-86
2023/03/25 19:40:17;;;;;;;7.30;3.20;;;;;;;8.45;100.00;99252.48;215420;1290;138794;-85
2023/03/25 19:45:19;;;;;;;14.20;5.80;;;;;;;8.38;100.00;99244.31;215926;1288;138473;-85
2023/03/25 19:50:26;;;;;;;14.80;6.80;;;;;;;8.33;100.00;99242.27;214899;1289;139466;-84
2023/03/25 19:55:27;;;;;;;14.80;7.30;;;;;;;8.25;100.00;99242.42;215573;1291;105749;-85
2023/03/25 20:00:28;;;;;;;15.00;6.00;;;;;;;8.18;100.00;99239.26;214780;1289;142040;-85
2023/03/25 20:05:31;;;;;;;11.20;5.40;;;;;;;8.14;100.00;99237.45;215402;1288;139009;-85
2023/03/25 20:10:32;;;;;;;16.00;6.20;;;;;;;8.08;100.00;99244.86;214857;1292;139671;-85
2023/03/25 20:15:33;;;;;;;17.60;9.00;;;;;;;7.98;100.00;99243.52;215224;1289;139041;-85
2023/03/25 20:20:34;;;;;;;22.00;10.40;;;;;;;7.88;100.00;99244.20;214737;1289;139526;-85
2023/03/25 20:25:34;;;;;;;24.60;10.40;;;;;;;7.76;100.00;99245.96;215603;1289;97632;-84
2023/03/25 20:30:35;;;;;;;19.10;9.50;;;;;;;7.64;100.00;99241.23;215094;1289;139921;-84
2023/03/25 20:35:35;;;;;;;19.10;9.20;;;;;;;7.54;100.00;99244.70;215259;1288;138592;-86
2023/03/25 20:40:36;;;;;;;17.50;8.50;;;;;;;7.44;100.00;99244.98;214456;1294;138815;-85
2023/03/25 20:45:37;;;;;;;15.80;7.60;;;;;;;7.36;100.00;99245.48;215288;1289;138907;-85
2023/03/25 20:50:37;;;;;;;14.40;7.10;;;;;;;7.30;100.00;99242.33;214601;1288;140483;-86
2023/03/25 20:55:38;;;;;;;19.00;9.00;;;;;;;7.24;100.00;99238.78;215244;1289;97873;-86
2023/03/25 21:00:38;;;;;;;18.30;9.30;;;;;;;7.21;100.00;99235.63;214762;1289;138840;-87
2023/03/25 21:05:39;;;;;;;20.40;8.80;;;;;;;7.19;100.00;99230.16;215356;1289;138780;-86
2023/03/25 21:10:47;;;;;;;19.00;8.50;;;;;;;7.17;100.00;99228.35;214982;1288;138854;-86
2023/03/25 21:15:52;;;;;;;18.30;8.00;;;;;;;7.16;100.00;99223.74;215173;1288;138795;-86
2023/03/25 21:20:54;;;;;;;17.60;7.70;;;;;;;7.16;100.00;99220.61;214647;1289;139435;-85
2023/03/25 21:25:55;;;;;;;17.00;7.40;;;;;;;7.17;100.00;99214.66;215321;1289;97970;-87
2023/03/25 21:31:09;;;;;;;15.20;7.10;;;;;;;7.17;100.00;99217.25;214793;1288;138753;-85
2023/03/25 21:36:11;;;;;;;13.90;6.40;;;;;;;7.17;100.00;99214.27;215743;1293;138775;-87
2023/03/25 21:41:12;;;;;;;14.90;5.60;;;;;;;7.15;100.00;99205.05;215625;1294;139513;-86
2023/03/25 21:46:13;;;;;;;13.60;5.00;;;;;;;7.13;100.00;99205.89;215817;1289;138638;-86
2023/03/25 21:51:13;;;;;;;10.10;3.80;;;;;;;7.13;100.00;99205.03;215079;1289;138837;-85
2023/03/25 21:56:19;;;;;;;13.50;5.40;;;;;;;7.16;100.00;99197.54;215401;1290;138960;-86
2023/03/25 22:01:26;;;;;;;13.90;4.90;;;;;;;7.18;100.00;99199.36;215025;1289;138999;-88
2023/03/25 22:06:30;;;;;;;11.80;5.20;;;;;;;7.22;100.00;99194.20;215095;1293;138458;-88
2023/03/25 22:11:32;;;;;;;14.40;4.90;;;;;;;7.25;100.00;99191.80;215061;1289;139767;-87
2023/03/25 22:16:33;;;;;;;13.30;4.90;;;;;;;7.27;100.00;99180.55;215761;1288;138716;-89
2023/03/25 22:21:36;;;;;;;12.10;4.90;;;;;;;7.29;100.00;99171.65;215079;1288;139276;-88
2023/03/25 22:26:41;;;;;;;10.00;3.90;;;;;;;7.32;100.00;99171.34;215777;1289;139116;-89
2023/03/25 22:31:42;;;;;;;11.00;3.90;;;;;;;7.33;100.00;99165.33;214855;1288;138958;-88
2023/03/25 22:36:48;;;;;;;10.60;4.10;;;;;;;7.32;100.00;99160.56;215025;1292;139020;-86
2023/03/25 22:41:49;;;;;;;12.40;3.60;;;;;;;7.31;100.00;99160.64;214849;1292;139870;-87
2023/03/25 22:46:50;;;;;;;8.90;3.50;;;;;;;7.31;100.00;99160.01;215032;1291;138884;-87
2023/03/25 22:51:51;;;;;;;10.70;4.00;;;;;;;7.33;100.00;99151.02;214792;1292;138779;-87
2023/03/25 22:56:51;;;;;;;12.50;4.80;;;;;;;7.34;100.00;99150.72;215187;1293;138730;-86
2023/03/25 23:01:51;;;;;;;7.10;3.60;;;;;;;7.35;100.00;99154.62;214483;1289;140035;-87
2023/03/25 23:06:52;;;;;;;12.00;3.40;;;;;;;7.37;100.00;99163.15;214867;1289;139222;-87
2023/03/25 23:11:52;;;;;;;12.00;4.20;;;;;;;7.40;100.00;99165.11;214579;1288;139636;-87
2023/03/25 23:16:53;;;;;;;8.00;3.90;;;;;;;7.42;100.00;99166.69;215294;1292;139577;-87
2023/03/25 23:21:53;;;;;;;8.00;2.80;;;;;;;7.47;100.00;99166.08;214250;1288;138680;-90